createdAt,value
2018-08-20T00:02:05.993Z,18.60
2018-08-20T00:04:41.009Z,18.60
2018-08-20T00:07:09.502Z,18.60
2018-08-20T00:09:43.389Z,18.50
2018-08-20T00:12:12.395Z,18.50
2018-08-20T00:14:40.836Z,18.50
2018-08-20T00:17:14.472Z,18.50
2018-08-20T00:19:42.870Z,18.40
2018-08-20T00:22:11.265Z,18.40
2018-08-20T00:24:39.647Z,18.40
2018-08-20T00:27:08.162Z,18.40
2018-08-20T00:29:37.788Z,18.30
2018-08-20T00:32:06.483Z,18.30
2018-08-20T00:34:37.015Z,18.20
2018-08-20T00:37:05.409Z,18.10
2018-08-20T00:39:33.831Z,18.10
2018-08-20T00:42:02.123Z,18.00
2018-08-20T00:44:31.675Z,18.00
2018-08-20T00:47:00.162Z,18.00
2018-08-20T00:49:28.529Z,18.00
2018-08-20T00:51:56.860Z,18.00
2018-08-20T00:54:29.268Z,18.00
2018-08-20T00:56:57.861Z,17.90
2018-08-20T00:59:26.214Z,17.90
2018-08-20T01:01:54.540Z,17.90
2018-08-20T01:04:24.995Z,17.90
2018-08-20T01:06:53.391Z,17.80
2018-08-20T01:09:21.904Z,17.80
2018-08-20T01:11:50.184Z,17.80
2018-08-20T01:14:21.952Z,17.80
2018-08-20T01:16:50.111Z,17.80
2018-08-20T01:19:18.359Z,17.70
2018-08-20T01:21:46.963Z,17.70
2018-08-20T01:24:15.490Z,17.70
2018-08-20T01:26:43.754Z,17.60
2018-08-20T01:29:13.374Z,17.60
2018-08-20T01:31:41.789Z,17.60
2018-08-20T01:34:11.208Z,17.50
2018-08-20T01:36:42.822Z,17.50
2018-08-20T01:39:11.724Z,17.50
2018-08-20T01:41:39.953Z,17.40
2018-08-20T01:44:08.461Z,17.40
2018-08-20T01:46:36.765Z,17.40
2018-08-20T01:49:04.985Z,17.40
2018-08-20T01:51:33.477Z,17.30
2018-08-20T01:54:01.806Z,17.30
2018-08-20T01:56:36.107Z,17.30
2018-08-20T01:59:04.724Z,17.30
2018-08-20T02:01:33.127Z,17.30
2018-08-20T02:04:01.600Z,17.30
2018-08-20T02:06:31.130Z,17.20
2018-08-20T02:08:59.731Z,17.20
2018-08-20T02:11:28.153Z,17.20
2018-08-20T02:13:57.170Z,17.20
2018-08-20T02:16:35.460Z,17.10
2018-08-20T02:19:03.790Z,17.10
2018-08-20T02:21:32.172Z,17.10
2018-08-20T02:24:00.587Z,17.00
2018-08-20T02:26:35.139Z,17.00
2018-08-20T02:29:03.825Z,17.00
2018-08-20T02:31:32.223Z,17.00
2018-08-20T02:34:00.728Z,16.90
2018-08-20T02:36:41.297Z,16.90
2018-08-20T02:39:12.100Z,16.90
2018-08-20T02:41:40.825Z,16.90
2018-08-20T02:44:10.028Z,16.80
2018-08-20T02:46:50.357Z,16.80
2018-08-20T02:49:19.415Z,16.80
2018-08-20T02:51:48.616Z,16.80
2018-08-20T02:54:16.952Z,16.80
2018-08-20T02:56:48.257Z,16.80
2018-08-20T02:59:17.468Z,16.70
2018-08-20T03:01:45.750Z,16.70
2018-08-20T03:04:14.125Z,16.70
2018-08-20T03:06:44.669Z,16.70
2018-08-20T03:09:14.051Z,16.60
2018-08-20T03:11:42.495Z,16.60
2018-08-20T03:14:11.674Z,16.50
2018-08-20T03:16:42.074Z,16.40
2018-08-20T03:19:10.563Z,16.30
2018-08-20T03:21:39.084Z,16.30
2018-08-20T03:24:15.456Z,16.20
2018-08-20T03:26:43.661Z,16.20
2018-08-20T03:29:12.152Z,16.20
2018-08-20T03:31:40.670Z,16.20
2018-08-20T03:34:13.460Z,16.20
2018-08-20T03:36:42.288Z,16.20
2018-08-20T03:39:10.741Z,16.20
2018-08-20T03:41:39.257Z,16.20
2018-08-20T03:44:07.758Z,16.20
2018-08-20T03:46:36.978Z,16.20
2018-08-20T03:49:05.875Z,16.20
2018-08-20T03:51:34.189Z,16.20
2018-08-20T03:54:02.687Z,16.20
2018-08-20T03:56:31.409Z,16.20
2018-08-20T03:58:59.901Z,16.20
2018-08-20T04:01:28.410Z,16.20
2018-08-20T04:03:58.012Z,16.20
2018-08-20T04:06:26.417Z,16.10
2018-08-20T04:08:54.837Z,16.10
2018-08-20T04:11:23.207Z,16.10
2018-08-20T04:13:59.495Z,16.00
2018-08-20T04:16:27.713Z,16.00
2018-08-20T04:19:00.532Z,16.00
2018-08-20T04:21:29.008Z,16.00
2018-08-20T04:23:59.541Z,16.00
2018-08-20T04:26:28.036Z,16.00
2018-08-20T04:28:56.458Z,16.10
2018-08-20T04:31:26.865Z,16.10
2018-08-20T04:33:55.749Z,16.10
2018-08-20T04:36:24.029Z,16.10
2018-08-20T04:38:52.413Z,16.20
2018-08-20T04:41:24.182Z,16.20
2018-08-20T04:43:52.579Z,16.20
2018-08-20T04:46:21.203Z,16.20
2018-08-20T04:48:49.584Z,16.30
2018-08-20T04:51:18.293Z,16.30
2018-08-20T04:53:46.668Z,16.40
2018-08-20T04:56:15.059Z,16.50
2018-08-20T04:58:43.475Z,16.60
2018-08-20T05:01:11.994Z,16.60
2018-08-20T05:03:40.163Z,16.70
2018-08-20T05:06:09.017Z,16.70
2018-08-20T05:08:37.352Z,16.80
2018-08-20T05:11:05.773Z,16.90
2018-08-20T05:13:34.211Z,17.30
2018-08-20T05:16:02.667Z,18.20
2018-08-20T05:18:31.674Z,19.60
2018-08-20T05:21:00.196Z,20.90
2018-08-20T05:23:28.511Z,22.30
2018-08-20T05:25:56.880Z,23.60
2018-08-20T05:28:25.190Z,24.80
2018-08-20T05:30:53.792Z,25.90
2018-08-20T05:33:22.210Z,27.00
2018-08-20T05:35:50.461Z,28.10
2018-08-20T05:38:18.894Z,29.00
2018-08-20T05:40:47.227Z,29.80
2018-08-20T05:43:15.741Z,30.60
2018-08-20T05:45:44.090Z,31.40
2018-08-20T05:48:14.529Z,32.20
2018-08-20T05:50:42.937Z,33.00
2018-08-20T05:53:11.336Z,33.70
2018-08-20T05:55:39.828Z,34.30
2018-08-20T05:58:08.150Z,34.90
2018-08-20T06:00:36.645Z,35.50
2018-08-20T06:03:04.941Z,36.10
2018-08-20T06:05:33.565Z,36.70
2018-08-20T06:08:01.930Z,37.10
2018-08-20T06:10:30.472Z,37.60
2018-08-20T06:12:58.780Z,38.10
2018-08-20T06:15:27.457Z,38.40
2018-08-20T06:17:56.055Z,38.70
2018-08-20T06:21:22.523Z,39.00
2018-08-20T06:23:51.164Z,39.40
2018-08-20T06:26:20.822Z,39.60
2018-08-20T06:28:49.496Z,39.80
2018-08-20T06:31:18.025Z,40.10
2018-08-20T06:33:46.302Z,40.70
2018-08-20T06:36:14.796Z,41.20
2018-08-20T06:38:43.281Z,41.60
2018-08-20T06:41:11.807Z,41.70
2018-08-20T06:43:40.211Z,42.00
2018-08-20T06:46:08.695Z,41.80
2018-08-20T06:48:37.114Z,41.60
2018-08-20T06:51:05.640Z,41.50
2018-08-20T06:53:35.011Z,41.50
2018-08-20T06:56:03.507Z,41.60
2018-08-20T06:58:31.497Z,41.80
2018-08-20T07:00:59.839Z,41.90
2018-08-20T07:03:28.244Z,42.00
2018-08-20T07:05:56.822Z,42.40
2018-08-20T07:08:25.316Z,43.00
2018-08-20T07:10:53.732Z,43.30
2018-08-20T07:13:36.311Z,43.80
2018-08-20T07:16:05.532Z,44.30
2018-08-20T07:18:33.994Z,44.50
2018-08-20T07:21:17.092Z,44.80
2018-08-20T07:23:45.804Z,45.00
2018-08-20T07:26:14.057Z,45.40
2018-08-20T07:28:42.587Z,45.60
2018-08-20T07:31:11.163Z,45.60
2018-08-20T07:33:39.789Z,45.70
2018-08-20T07:36:08.184Z,46.00
2018-08-20T07:38:36.844Z,46.30
2018-08-20T07:41:05.469Z,46.50
2018-08-20T07:43:33.984Z,46.90
2018-08-20T07:46:02.386Z,47.20
2018-08-20T07:48:30.557Z,47.40
2018-08-20T07:50:58.977Z,47.40
2018-08-20T07:53:27.390Z,47.70
2018-08-20T07:55:55.932Z,47.90
2018-08-20T07:58:24.414Z,47.90
2018-08-20T08:00:52.890Z,47.70
2018-08-20T08:09:08.893Z,47.80
2018-08-20T08:11:37.230Z,47.70
2018-08-20T08:14:06.346Z,47.70
2018-08-20T08:16:36.095Z,47.80
2018-08-20T08:19:04.455Z,48.00
2018-08-20T08:21:33.070Z,48.20
2018-08-20T08:24:02.214Z,48.30
2018-08-20T08:26:32.891Z,48.40
2018-08-20T08:29:01.338Z,48.10
2018-08-20T08:31:29.830Z,47.40
2018-08-20T08:33:58.784Z,46.40
2018-08-20T08:36:27.189Z,45.40
2018-08-20T08:38:55.439Z,44.60
2018-08-20T08:41:23.832Z,43.90
2018-08-20T08:43:52.254Z,42.90
2018-08-20T08:46:20.846Z,41.30
2018-08-20T08:48:49.360Z,39.80
2018-08-20T08:51:17.653Z,38.20
2018-08-20T08:53:46.259Z,36.50
2018-08-20T08:56:14.668Z,35.20
2018-08-20T08:58:43.059Z,34.10
2018-08-20T09:02:03.624Z,33.20
2018-08-20T09:04:32.113Z,32.30
2018-08-20T09:07:00.431Z,31.70
2018-08-20T09:09:28.917Z,31.30
2018-08-20T09:11:57.902Z,31.00
2018-08-20T09:14:26.418Z,30.60
2018-08-20T09:16:54.731Z,30.30
2018-08-20T09:19:23.440Z,30.00
2018-08-20T09:21:51.939Z,29.80
2018-08-20T09:24:20.344Z,29.60
2018-08-20T09:26:48.728Z,29.40
2018-08-20T09:29:17.361Z,29.20
2018-08-20T09:31:45.638Z,29.10
2018-08-20T09:34:13.748Z,28.90
2018-08-20T09:36:42.042Z,28.80
2018-08-20T09:39:10.437Z,28.70
2018-08-20T09:41:38.838Z,28.70
2018-08-20T09:44:07.241Z,28.70
2018-08-20T09:46:35.659Z,28.60
2018-08-20T09:49:04.055Z,28.50
2018-08-20T09:51:32.405Z,28.30
2018-08-20T09:54:00.937Z,28.10
2018-08-20T09:56:29.343Z,28.00
2018-08-20T09:58:58.177Z,28.10
2018-08-20T10:01:26.565Z,28.10
2018-08-20T10:03:55.055Z,28.10
2018-08-20T10:06:23.566Z,28.20
2018-08-20T10:08:51.586Z,28.30
2018-08-20T10:11:22.082Z,28.30
2018-08-20T10:13:50.479Z,28.30
2018-08-20T10:16:18.967Z,28.30
2018-08-20T10:18:47.475Z,28.20
2018-08-20T10:21:15.956Z,28.20
2018-08-20T10:23:44.157Z,28.10
2018-08-20T10:26:12.597Z,28.10
2018-08-20T10:28:40.994Z,28.10
2018-08-20T10:31:09.382Z,28.20
2018-08-20T10:33:37.729Z,28.20
2018-08-20T10:36:06.064Z,28.20
2018-08-20T10:38:34.471Z,28.20
2018-08-20T10:41:02.811Z,28.20
2018-08-20T10:43:31.086Z,28.20
2018-08-20T10:46:05.015Z,28.20
2018-08-20T10:48:33.324Z,28.40
2018-08-20T10:51:01.798Z,28.40
2018-08-20T10:53:30.188Z,28.50
2018-08-20T10:55:58.643Z,28.40
2018-08-20T10:58:27.199Z,28.40
2018-08-20T11:00:56.389Z,28.40
2018-08-20T11:03:24.930Z,28.50
2018-08-20T11:05:53.300Z,28.60
2018-08-20T11:08:21.633Z,28.60
2018-08-20T11:10:50.016Z,28.60
2018-08-20T11:13:18.233Z,28.50
2018-08-20T11:15:46.599Z,28.60
2018-08-20T11:18:15.175Z,28.60
2018-08-20T11:20:43.621Z,28.60
2018-08-20T11:23:12.031Z,28.80
2018-08-20T11:25:41.918Z,28.80
2018-08-20T11:28:11.422Z,28.90
2018-08-20T11:30:40.020Z,28.90
2018-08-20T11:33:08.475Z,28.90
2018-08-20T11:35:36.874Z,28.70
2018-08-20T11:38:05.584Z,28.60
2018-08-20T11:40:33.722Z,28.50
2018-08-20T11:43:01.986Z,28.60
2018-08-20T11:45:30.484Z,28.70
2018-08-20T11:47:58.786Z,28.90
2018-08-20T11:50:27.694Z,29.10
2018-08-20T11:52:56.193Z,29.40
2018-08-20T11:55:24.671Z,29.30
2018-08-20T11:57:52.985Z,29.30
2018-08-20T12:00:21.536Z,29.30
2018-08-20T12:02:50.089Z,29.20
2018-08-20T12:05:18.517Z,29.20
2018-08-20T12:07:46.999Z,29.20
2018-08-20T12:10:15.194Z,29.20
2018-08-20T12:12:43.834Z,29.10
2018-08-20T12:15:12.716Z,29.00
2018-08-20T12:17:41.827Z,28.90
2018-08-20T12:20:10.420Z,28.90
2018-08-20T12:22:40.010Z,29.00
2018-08-20T12:25:11.634Z,29.10
2018-08-20T12:27:40.263Z,29.10
2018-08-20T12:30:09.369Z,29.00
2018-08-20T12:32:38.544Z,28.90
2018-08-20T12:35:07.714Z,28.90
2018-08-20T12:37:35.983Z,28.70
2018-08-20T12:40:04.972Z,28.60
2018-08-20T12:42:34.507Z,28.50
2018-08-20T12:45:03.875Z,28.60
2018-08-20T12:47:32.228Z,28.70
2018-08-20T12:50:00.553Z,28.70
2018-08-20T12:52:29.144Z,28.70
2018-08-20T12:54:57.760Z,28.60
2018-08-20T12:57:26.459Z,28.60
2018-08-20T12:59:57.455Z,28.60
2018-08-20T13:02:26.545Z,28.50
2018-08-20T13:04:54.708Z,28.60
2018-08-20T13:07:23.120Z,28.50
2018-08-20T13:09:51.605Z,28.50
2018-08-20T13:12:19.992Z,28.50
2018-08-20T13:14:48.442Z,28.50
2018-08-20T13:17:17.678Z,28.40
2018-08-20T13:19:46.050Z,28.30
2018-08-20T13:22:14.494Z,28.30
2018-08-20T13:24:43.146Z,28.30
2018-08-20T13:27:12.933Z,28.30
2018-08-20T13:29:41.593Z,28.40
2018-08-20T13:32:10.100Z,28.30
2018-08-20T13:34:38.511Z,28.20
2018-08-20T13:37:07.192Z,28.20
2018-08-20T13:39:35.597Z,28.20
2018-08-20T13:42:04.799Z,28.20
2018-08-20T13:44:33.939Z,28.30
2018-08-20T13:47:02.561Z,28.30
2018-08-20T13:49:31.885Z,28.30
2018-08-20T13:52:00.551Z,28.30
2018-08-20T13:54:29.303Z,28.20
2018-08-20T13:56:57.791Z,28.30
2018-08-20T13:59:26.147Z,28.30
2018-08-20T14:01:54.685Z,28.30
2018-08-20T14:04:23.520Z,28.30
2018-08-20T14:06:51.688Z,28.40
2018-08-20T14:09:20.181Z,28.50
2018-08-20T14:11:49.110Z,28.50
2018-08-20T14:14:17.470Z,28.50
2018-08-20T14:16:45.875Z,28.60
2018-08-20T14:19:14.078Z,28.70
2018-08-20T14:21:42.667Z,28.70
2018-08-20T14:24:10.959Z,28.60
2018-08-20T14:26:40.095Z,28.50
2018-08-20T14:29:08.713Z,28.40
2018-08-20T14:31:37.201Z,28.40
2018-08-20T14:34:06.401Z,28.30
2018-08-20T14:36:35.113Z,28.20
2018-08-20T14:39:03.673Z,28.00
2018-08-20T14:41:32.121Z,27.90
2018-08-20T14:44:00.810Z,27.80
2018-08-20T14:46:29.327Z,27.80
2018-08-20T14:48:57.968Z,27.60
2018-08-20T14:51:26.503Z,27.50
2018-08-20T14:53:55.049Z,27.30
2018-08-20T14:56:23.553Z,27.20
2018-08-20T14:58:51.818Z,27.10
2018-08-20T15:01:20.144Z,27.10
2018-08-20T15:03:48.513Z,27.00
2018-08-20T15:06:17.078Z,27.10
2018-08-20T15:08:45.554Z,27.20
2018-08-20T15:11:14.053Z,27.20
2018-08-20T15:13:42.431Z,27.20
2018-08-20T15:16:10.648Z,27.10
2018-08-20T15:18:39.062Z,27.10
2018-08-20T15:21:07.419Z,27.10
2018-08-20T15:23:35.853Z,27.00
2018-08-20T15:26:04.445Z,27.00
2018-08-20T15:28:33.715Z,26.80
2018-08-20T15:31:02.172Z,26.70
2018-08-20T15:33:30.462Z,26.60
2018-08-20T15:35:59.599Z,26.50
2018-08-20T15:38:27.847Z,26.40
2018-08-20T15:40:56.172Z,26.30
2018-08-20T15:43:24.578Z,26.10
2018-08-20T15:45:53.059Z,26.00
2018-08-20T15:48:21.458Z,25.80
2018-08-20T15:50:49.455Z,25.70
2018-08-20T15:53:17.845Z,25.60
2018-08-20T15:55:46.065Z,25.60
2018-08-20T15:58:14.502Z,25.60
2018-08-20T16:00:43.183Z,25.50
2018-08-20T16:03:11.548Z,25.40
2018-08-20T16:05:40.055Z,25.40
2018-08-20T16:08:08.574Z,25.40
2018-08-20T16:10:36.951Z,25.30
2018-08-20T16:13:05.427Z,25.20
2018-08-20T16:15:34.306Z,25.20
2018-08-20T16:18:02.770Z,25.20
2018-08-20T16:20:31.192Z,25.20
2018-08-20T16:22:59.590Z,25.10
2018-08-20T16:25:27.853Z,25.10
2018-08-20T16:27:56.076Z,25.00
2018-08-20T16:30:24.789Z,25.10
2018-08-20T16:32:55.326Z,25.00
2018-08-20T16:35:23.936Z,24.90
2018-08-20T16:37:52.360Z,24.90
2018-08-20T16:40:20.836Z,24.90
2018-08-20T16:42:49.436Z,24.80
2018-08-20T16:45:18.119Z,24.80
2018-08-20T16:47:46.753Z,24.70
2018-08-20T16:50:15.250Z,24.70
2018-08-20T16:52:43.722Z,24.60
2018-08-20T16:55:12.268Z,24.60
2018-08-20T16:57:40.557Z,24.60
2018-08-20T17:00:10.750Z,24.50
2018-08-20T17:02:42.042Z,24.50
2018-08-20T17:05:11.671Z,24.40
2018-08-20T17:07:40.192Z,24.30
2018-08-20T17:10:09.757Z,24.30
2018-08-20T17:14:07.809Z,24.20
2018-08-20T17:16:36.588Z,24.10
2018-08-20T17:19:05.142Z,24.00
2018-08-20T17:21:33.729Z,23.90
2018-08-20T17:24:02.133Z,23.90
2018-08-20T17:26:30.746Z,23.80
2018-08-20T17:29:03.631Z,23.80
2018-08-20T17:31:31.941Z,23.80
2018-08-20T17:34:00.577Z,23.70
2018-08-20T17:36:29.049Z,23.60
2018-08-20T17:38:57.537Z,23.50
2018-08-20T17:41:25.714Z,23.50
2018-08-20T17:43:54.256Z,23.40
2018-08-20T17:46:23.434Z,23.30
2018-08-20T17:48:52.042Z,23.30
2018-08-20T17:51:20.558Z,23.20
2018-08-20T17:53:51.777Z,23.10
2018-08-20T17:56:20.839Z,23.10
2018-08-20T17:58:57.046Z,23.00
2018-08-20T18:01:25.908Z,23.00
2018-08-20T18:03:54.822Z,22.90
2018-08-20T18:06:36.299Z,22.90
2018-08-20T18:09:05.003Z,22.80
2018-08-20T18:11:34.043Z,22.70
2018-08-20T18:14:02.472Z,22.70
2018-08-20T18:16:30.825Z,22.60
2018-08-20T18:18:59.238Z,22.60
2018-08-20T18:21:28.234Z,22.60
2018-08-20T18:23:56.711Z,22.50
2018-08-20T18:26:29.611Z,22.40
2018-08-20T18:28:58.256Z,22.40
2018-08-20T18:31:27.749Z,22.40
2018-08-20T18:33:56.712Z,22.30
2018-08-20T18:36:27.120Z,22.30
2018-08-20T18:39:02.798Z,22.20
2018-08-20T18:42:23.566Z,22.20
2018-08-20T18:44:51.851Z,22.20
2018-08-20T18:47:20.156Z,22.20
2018-08-20T18:49:54.749Z,22.10
2018-08-20T18:52:23.514Z,22.00
2018-08-20T18:54:53.924Z,22.00
2018-08-20T18:57:24.578Z,22.00
2018-08-20T18:59:55.228Z,21.90
2018-08-20T19:02:48.192Z,21.90
2018-08-20T19:05:17.595Z,21.90
2018-08-20T19:07:46.220Z,21.80
2018-08-20T19:10:20.979Z,21.70
2018-08-20T19:12:49.360Z,21.60
2018-08-20T19:15:28.479Z,21.60
2018-08-20T19:17:57.489Z,21.50
2018-08-20T19:20:26.117Z,21.40
2018-08-20T19:22:54.734Z,21.30
2018-08-20T19:25:24.252Z,21.20
2018-08-20T19:27:52.903Z,21.00
2018-08-20T19:30:22.673Z,20.90
2018-08-20T19:32:51.206Z,20.80
2018-08-20T19:35:19.754Z,20.70
2018-08-20T19:37:48.994Z,20.60
2018-08-20T19:40:17.536Z,20.50
2018-08-20T19:42:46.202Z,20.40
2018-08-20T19:45:15.214Z,20.40
2018-08-20T19:47:43.620Z,20.30
2018-08-20T19:50:12.412Z,20.20
2018-08-20T19:52:40.600Z,20.10
2018-08-20T19:55:11.141Z,20.00
2018-08-20T19:57:39.735Z,19.90
2018-08-20T20:00:12.026Z,19.90
2018-08-20T20:02:43.423Z,19.80
2018-08-20T20:05:13.733Z,19.80
2018-08-20T20:07:53.663Z,19.70
2018-08-20T20:10:22.034Z,19.60
2018-08-20T20:12:52.425Z,19.60
2018-08-20T20:15:20.861Z,19.50
2018-08-20T20:17:49.639Z,19.50
2018-08-20T20:20:18.195Z,19.30
2018-08-20T20:22:46.393Z,19.20
2018-08-20T20:25:15.169Z,19.20
2018-08-20T20:27:43.813Z,19.10
2018-08-20T20:30:12.276Z,19.10
2018-08-20T20:32:40.708Z,18.90
2018-08-20T20:35:09.974Z,18.80
2018-08-20T20:37:38.468Z,18.70
2018-08-20T20:40:07.508Z,18.70
2018-08-20T20:42:36.114Z,18.70
2018-08-20T20:45:04.621Z,18.70
2018-08-20T20:47:33.004Z,18.70
2018-08-20T20:50:01.449Z,18.70
2018-08-20T20:52:29.851Z,18.70
2018-08-20T20:54:57.931Z,18.70
2018-08-20T20:57:26.431Z,18.70
2018-08-20T20:59:55.082Z,18.70
2018-08-20T21:02:23.436Z,18.70
2018-08-20T21:04:52.023Z,18.80
2018-08-20T21:07:24.854Z,18.80
2018-08-20T21:09:53.221Z,18.90
2018-08-20T21:12:21.751Z,18.90
2018-08-20T21:14:50.143Z,18.90
2018-08-20T21:17:18.801Z,19.00
2018-08-20T21:19:47.437Z,19.10
2018-08-20T21:22:15.726Z,19.10
2018-08-20T21:24:44.053Z,19.20
2018-08-20T21:27:25.680Z,19.30
2018-08-20T21:29:59.534Z,19.30
2018-08-20T21:32:28.043Z,19.30
2018-08-20T21:34:56.668Z,19.40
2018-08-20T21:37:24.971Z,19.40
2018-08-20T21:39:53.449Z,19.40
2018-08-20T21:42:56.206Z,19.40
2018-08-20T21:45:24.626Z,19.40
2018-08-20T21:47:53.027Z,19.40
2018-08-20T21:50:21.531Z,19.40
2018-08-20T21:52:49.833Z,19.40
2018-08-20T21:55:18.214Z,19.40
2018-08-20T21:57:57.695Z,19.40
2018-08-20T22:00:27.041Z,19.40
2018-08-20T22:03:00.244Z,19.40
2018-08-20T22:05:29.106Z,19.40
2018-08-20T22:07:58.615Z,19.40
2018-08-20T22:10:28.309Z,19.40
2018-08-20T22:12:56.713Z,19.40
2018-08-20T22:15:25.239Z,19.40
2018-08-20T22:17:53.654Z,19.40
2018-08-20T22:20:21.775Z,19.40
2018-08-20T22:22:50.053Z,19.40
2018-08-20T22:25:18.933Z,19.40
2018-08-20T22:27:52.883Z,19.40
2018-08-20T22:30:21.247Z,19.40
2018-08-20T22:32:49.521Z,19.40
2018-08-20T22:35:23.109Z,19.50
2018-08-20T22:37:51.725Z,19.50
2018-08-20T22:40:20.656Z,19.50
2018-08-20T22:42:54.144Z,19.50
2018-08-20T22:45:22.648Z,19.40
2018-08-20T22:47:51.530Z,19.50
2018-08-20T22:50:20.130Z,19.50
2018-08-20T22:52:49.828Z,19.50
2018-08-20T22:55:19.337Z,19.50
2018-08-20T22:57:59.224Z,19.50
2018-08-20T23:00:28.089Z,19.40
2018-08-20T23:02:57.122Z,19.40
2018-08-20T23:05:30.414Z,19.50
2018-08-20T23:08:06.978Z,19.40
2018-08-20T23:10:38.328Z,19.50
2018-08-20T23:13:07.041Z,19.40
2018-08-20T23:15:35.337Z,19.40
2018-08-20T23:18:03.849Z,19.40
2018-08-20T23:20:32.643Z,19.40
2018-08-20T23:23:01.323Z,19.40
2018-08-20T23:25:29.747Z,19.30
2018-08-20T23:27:58.157Z,19.40
2018-08-20T23:30:26.441Z,19.30
2018-08-20T23:32:54.948Z,19.30
2018-08-20T23:35:23.430Z,19.20
2018-08-20T23:37:52.523Z,19.20
2018-08-20T23:40:21.188Z,19.20
2018-08-20T23:42:49.776Z,19.20
2018-08-20T23:45:18.247Z,19.10
2018-08-20T23:47:46.663Z,19.10
2018-08-20T23:50:15.147Z,19.10
2018-08-20T23:52:43.360Z,19.00
2018-08-20T23:55:11.660Z,19.00
2018-08-20T23:57:39.763Z,19.00
